Time,TemperatureF,DewpointF,PressureIn,WindDirection,WindDirectionDegrees,WindSpeedMPH,WindSpeedGustMPH,Humidity,HourlyPrecipIn,Conditions,Clouds,dailyrainin,SolarRadiationWatts/m^2,SoftwareType,DateUTC
2013-02-11 00:00:00,65.1,59.5,30.17,South,180,10.0,10.0,82,0.00,,,0.00,0.0,meteohub,2013-02-11 05:00:00,
2013-02-11 00:05:00,65.1,59.5,30.17,East,80,3.0,11.0,82,0.00,,,0.00,0.0,meteohub,2013-02-11 05:05:00,
2013-02-11 00:10:00,65.1,59.5,30.17,SE,130,2.0,11.0,82,0.00,,,0.00,0.0,meteohub,2013-02-11 05:10:00,
2013-02-11 00:15:00,65.1,59.5,30.17,SSE,147,0.0,10.0,82,0.00,,,0.00,0.0,meteohub,2013-02-11 05:15:00,
2013-02-11 00:20:00,65.1,59.9,30.17,South,170,2.0,10.0,83,0.00,,,0.00,0.0,meteohub,2013-02-11 05:20:00,
2013-02-11 00:25:00,64.9,59.7,30.17,SE,146,0.0,10.0,83,0.00,,,0.00,0.0,meteohub,2013-02-11 05:25:00,
2013-02-11 00:30:00,64.9,59.7,30.17,South,191,1.0,8.0,83,0.00,,,0.00,0.0,meteohub,2013-02-11 05:30:00,
2013-02-11 00:35:00,64.9,59.7,30.17,South,188,3.0,9.0,83,0.00,,,0.00,0.0,meteohub,2013-02-11 05:35:00,
2013-02-11 00:40:00,64.9,59.7,30.17,SE,141,3.0,9.0,83,0.00,,,0.00,0.0,meteohub,2013-02-11 05:40:00,
2013-02-11 00:45:00,64.9,59.7,30.17,SSE,167,2.0,9.0,83,0.00,,,0.00,0.0,meteohub,2013-02-11 05:45:00,
2013-02-11 00:50:00,64.9,59.7,30.17,South,169,3.0,5.0,83,0.00,,,0.00,0.0,meteohub,2013-02-11 05:50:00,
2013-02-11 00:56:00,64.9,59.7,30.17,South,189,0.0,6.0,83,0.00,,,0.00,0.0,meteohub,2013-02-11 05:56:00,
2013-02-11 01:01:00,64.8,59.5,30.17,SE,146,1.0,6.0,83,0.00,,,0.00,0.0,meteohub,2013-02-11 06:01:00,
2013-02-11 01:06:00,64.8,59.5,30.17,SSE,164,3.0,8.0,83,0.00,,,0.00,0.0,meteohub,2013-02-11 06:06:00,
2013-02-11 01:11:00,64.8,59.5,30.16,SE,146,1.0,8.0,83,0.00,,,0.00,0.0,meteohub,2013-02-11 06:11:00,
2013-02-11 01:16:00,64.8,59.5,30.16,SSE,168,1.0,6.0,83,0.00,,,0.00,0.0,meteohub,2013-02-11 06:16:00,
2013-02-11 01:21:00,64.8,59.5,30.15,SSE,164,4.0,10.0,83,0.00,,,0.00,0.0,meteohub,2013-02-11 06:21:00,
2013-02-11 01:26:00,64.6,59.4,30.15,South,171,1.0,11.0,83,0.00,,,0.00,0.0,meteohub,2013-02-11 06:26:00,
2013-02-11 01:31:00,64.8,59.5,30.15,South,169,2.0,11.0,83,0.00,,,0.00,0.0,meteohub,2013-02-11 06:31:00,
2013-02-11 01:36:00,64.8,59.5,30.14,SW,225,3.0,11.0,83,0.00,,,0.00,0.0,meteohub,2013-02-11 06:36:00,
2013-02-11 01:41:00,64.8,59.5,30.14,SSE,159,5.0,11.0,83,0.00,,,0.00,0.0,meteohub,2013-02-11 06:41:00,
2013-02-11 01:46:00,64.9,59.7,30.13,South,183,3.0,8.0,83,0.00,,,0.00,0.0,meteohub,2013-02-11 06:46:00,
2013-02-11 01:51:00,64.9,59.7,30.13,South,188,2.0,11.0,83,0.00,,,0.00,0.0,meteohub,2013-02-11 06:51:00,
2013-02-11 01:56:00,64.9,59.7,30.13,ESE,118,3.0,11.0,83,0.00,,,0.00,0.0,meteohub,2013-02-11 06:56:00,
2013-02-11 02:01:00,64.9,59.7,30.13,ESE,109,4.0,14.0,83,0.00,,,0.00,0.0,meteohub,2013-02-11 07:01:00,
2013-02-11 02:06:00,64.9,59.7,30.13,South,187,1.0,14.0,83,0.00,,,0.00,0.0,meteohub,2013-02-11 07:06:00,
2013-02-11 02:11:00,64.8,59.5,30.13,SE,142,2.0,12.0,83,0.00,,,0.00,0.0,meteohub,2013-02-11 07:11:00,
2013-02-11 02:16:00,64.6,59.4,30.13,SSE,165,4.0,11.0,83,0.00,,,0.00,0.0,meteohub,2013-02-11 07:16:00,
2013-02-11 02:21:00,64.6,59.4,30.12,SSE,149,2.0,11.0,83,0.00,,,0.00,0.0,meteohub,2013-02-11 07:21:00,
2013-02-11 02:26:00,64.6,59.4,30.12,SSE,159,2.0,10.0,83,0.00,,,0.00,0.0,meteohub,2013-02-11 07:26:00,
2013-02-11 02:31:00,64.6,59.4,30.12,SSW,209,7.0,11.0,83,0.00,,,0.00,0.0,meteohub,2013-02-11 07:31:00,
2013-02-11 02:36:00,64.6,59.4,30.12,South,175,3.0,11.0,83,0.00,,,0.00,0.0,meteohub,2013-02-11 07:36:00,
2013-02-11 02:41:00,64.6,59.4,30.12,SSE,166,1.0,11.0,83,0.00,,,0.00,0.0,meteohub,2013-02-11 07:41:00,
2013-02-11 02:46:00,64.6,59.4,30.12,SSE,167,5.0,9.0,83,0.00,,,0.00,0.0,meteohub,2013-02-11 07:46:00,
2013-02-11 02:51:00,64.8,59.5,30.12,SW,227,13.0,15.0,83,0.00,,,0.00,0.0,meteohub,2013-02-11 07:51:00,
2013-02-11 02:56:00,64.9,59.7,30.12,South,179,1.0,15.0,83,0.00,,,0.00,0.0,meteohub,2013-02-11 07:56:00,
2013-02-11 03:01:00,64.9,59.7,30.12,SW,221,2.0,15.0,83,0.00,,,0.00,0.0,meteohub,2013-02-11 08:01:00,
2013-02-11 03:06:00,64.9,59.7,30.12,South,172,0.0,14.0,83,0.00,,,0.00,0.0,meteohub,2013-02-11 08:06:00,
2013-02-11 03:11:00,65.1,59.9,30.13,SE,139,7.0,14.0,83,0.00,,,0.00,0.0,meteohub,2013-02-11 08:11:00,
2013-02-11 03:16:00,64.9,59.7,30.13,SSE,148,7.0,14.0,83,0.00,,,0.00,0.0,meteohub,2013-02-11 08:16:00,
2013-02-11 03:21:00,64.9,59.7,30.12,SSE,158,2.0,12.0,83,0.00,,,0.00,0.0,meteohub,2013-02-11 08:21:00,
2013-02-11 03:26:00,64.8,59.2,30.13,SSE,150,0.0,9.0,82,0.00,,,0.00,0.0,meteohub,2013-02-11 08:26:00,
2013-02-11 03:31:00,64.8,59.5,30.13,ESE,119,4.0,9.0,83,0.00,,,0.00,0.0,meteohub,2013-02-11 08:31:00,
2013-02-11 03:36:00,64.8,59.5,30.12,South,186,1.0,8.0,83,0.00,,,0.00,0.0,meteohub,2013-02-11 08:36:00,
2013-02-11 03:41:00,64.6,59.4,30.12,SE,143,2.0,8.0,83,0.00,,,0.00,0.0,meteohub,2013-02-11 08:41:00,
2013-02-11 03:46:00,64.6,59.4,30.12,SE,138,2.0,8.0,83,0.00,,,0.00,0.0,meteohub,2013-02-11 08:46:00,
2013-02-11 03:51:00,64.4,59.2,30.13,SSW,198,1.0,8.0,83,0.00,,,0.00,0.0,meteohub,2013-02-11 08:51:00,
2013-02-11 03:56:00,64.4,59.2,30.13,SSW,201,0.0,5.0,83,0.00,,,0.00,0.0,meteohub,2013-02-11 08:56:00,
2013-02-11 04:01:00,64.6,59.4,30.12,SSE,161,0.0,6.0,83,0.00,,,0.00,0.0,meteohub,2013-02-11 09:01:00,
2013-02-11 04:06:00,64.6,59.4,30.12,SSE,161,0.0,6.0,83,0.00,,,0.00,0.0,meteohub,2013-02-11 09:06:00,
2013-02-11 04:11:00,64.4,59.2,30.13,SSE,161,0.0,4.0,83,0.00,,,0.00,0.0,meteohub,2013-02-11 09:11:00,
2013-02-11 04:16:00,64.4,59.2,30.12,SSE,161,0.0,2.0,83,0.00,,,0.00,0.0,meteohub,2013-02-11 09:16:00,
2013-02-11 04:21:00,64.2,59.0,30.12,SSE,161,0.0,2.0,83,0.00,,,0.00,0.0,meteohub,2013-02-11 09:21:00,
2013-02-11 04:26:00,64.0,58.8,30.13,SSE,161,0.0,1.0,83,0.00,,,0.00,0.0,meteohub,2013-02-11 09:26:00,
2013-02-11 04:31:00,64.0,58.8,30.14,SSE,161,0.0,2.0,83,0.00,,,0.00,0.0,meteohub,2013-02-11 09:31:00,
2013-02-11 04:36:00,63.9,58.6,30.14,SSE,161,0.0,2.0,83,0.00,,,0.00,0.0,meteohub,2013-02-11 09:36:00,
2013-02-11 04:41:00,63.7,58.5,30.13,SSE,161,0.0,2.0,83,0.00,,,0.00,0.0,meteohub,2013-02-11 09:41:00,
2013-02-11 04:46:00,63.7,58.8,30.13,SSE,161,0.0,1.0,84,0.00,,,0.00,0.0,meteohub,2013-02-11 09:46:00,
2013-02-11 04:51:00,63.7,58.8,30.14,SSE,161,0.0,1.0,84,0.00,,,0.00,0.0,meteohub,2013-02-11 09:51:00,
2013-02-11 04:56:00,63.7,58.8,30.14,SSE,161,0.0,1.0,84,0.00,,,0.00,0.0,meteohub,2013-02-11 09:56:00,
2013-02-11 05:01:00,63.7,58.8,30.14,SSE,161,0.0,1.0,84,0.00,,,0.00,0.0,meteohub,2013-02-11 10:01:00,
2013-02-11 05:06:00,63.3,58.5,30.15,SSE,161,0.0,1.0,84,0.00,,,0.00,0.0,meteohub,2013-02-11 10:06:00,
2013-02-11 05:11:00,63.3,58.5,30.15,SSE,161,0.0,0.0,84,0.00,,,0.00,0.0,meteohub,2013-02-11 10:11:00,
2013-02-11 05:16:00,63.1,58.3,30.14,SSE,161,0.0,2.0,84,0.00,,,0.00,0.0,meteohub,2013-02-11 10:16:00,
2013-02-11 05:21:00,63.0,58.1,30.14,SSE,161,0.0,2.0,84,0.00,,,0.00,0.0,meteohub,2013-02-11 10:21:00,
2013-02-11 05:27:00,62.8,57.9,30.14,SSE,161,0.0,2.0,84,0.00,,,0.00,0.0,meteohub,2013-02-11 10:27:00,
2013-02-11 05:32:00,62.4,57.6,30.14,SSE,161,0.0,1.0,84,0.00,,,0.00,0.0,meteohub,2013-02-11 10:32:00,
2013-02-11 05:37:00,62.2,57.7,30.14,SSE,161,0.0,0.0,85,0.00,,,0.00,0.0,meteohub,2013-02-11 10:37:00,
2013-02-11 05:42:00,62.2,57.7,30.14,SSE,161,0.0,0.0,85,0.00,,,0.00,0.0,meteohub,2013-02-11 10:42:00,
2013-02-11 05:47:00,62.1,57.6,30.14,SSE,161,0.0,0.0,85,0.00,,,0.00,0.0,meteohub,2013-02-11 10:47:00,
2013-02-11 05:52:00,62.1,57.6,30.14,SSE,161,0.0,0.0,85,0.00,,,0.00,0.0,meteohub,2013-02-11 10:52:00,
2013-02-11 05:57:00,61.9,57.4,30.13,SSE,161,0.0,1.0,85,0.00,,,0.00,0.0,meteohub,2013-02-11 10:57:00,
2013-02-11 06:02:00,61.9,57.6,30.13,SSE,161,1.0,1.0,86,0.00,,,0.00,0.0,meteohub,2013-02-11 11:02:00,
2013-02-11 06:07:00,62.1,57.6,30.13,SSE,162,1.0,3.0,85,0.00,,,0.00,0.0,meteohub,2013-02-11 11:07:00,
2013-02-11 06:12:00,62.2,57.7,30.13,SSE,161,0.0,3.0,85,0.00,,,0.00,0.0,meteohub,2013-02-11 11:12:00,
2013-02-11 06:17:00,62.2,57.7,30.13,SSE,161,0.0,3.0,85,0.00,,,0.00,0.0,meteohub,2013-02-11 11:17:00,
2013-02-11 06:22:00,62.4,57.9,30.14,SSE,161,1.0,3.0,85,0.00,,,0.00,0.0,meteohub,2013-02-11 11:22:00,
2013-02-11 06:27:00,62.4,58.1,30.14,SSE,161,0.0,3.0,86,0.00,,,0.00,0.0,meteohub,2013-02-11 11:27:00,
2013-02-11 06:32:00,62.2,57.9,30.14,SSE,161,0.0,1.0,86,0.00,,,0.00,0.0,meteohub,2013-02-11 11:32:00,
2013-02-11 06:37:00,62.2,57.9,30.14,SSE,161,0.0,1.0,86,0.00,,,0.00,0.0,meteohub,2013-02-11 11:37:00,
2013-02-11 06:42:00,62.2,57.9,30.15,SSE,161,0.0,1.0,86,0.00,,,0.00,0.0,meteohub,2013-02-11 11:42:00,
2013-02-11 06:47:00,62.1,57.7,30.15,SSE,161,0.0,1.0,86,0.00,,,0.00,0.0,meteohub,2013-02-11 11:47:00,
2013-02-11 06:52:00,62.1,57.7,30.16,SSE,161,0.0,0.0,86,0.00,,,0.00,0.0,meteohub,2013-02-11 11:52:00,
2013-02-11 06:57:00,62.2,57.9,30.16,SSE,162,0.0,1.0,86,0.00,,,0.00,0.0,meteohub,2013-02-11 11:57:00,
2013-02-11 07:02:00,62.2,57.9,30.16,SSE,161,0.0,1.0,86,0.00,,,0.00,0.0,meteohub,2013-02-11 12:02:00,
2013-02-11 07:07:00,62.4,58.1,30.16,SSE,162,0.0,1.0,86,0.00,,,0.00,0.0,meteohub,2013-02-11 12:07:00,
2013-02-11 07:12:00,62.6,58.3,30.16,SSE,165,0.0,3.0,86,0.00,,,0.00,0.0,meteohub,2013-02-11 12:12:00,
2013-02-11 07:17:00,62.8,58.5,30.16,SSE,164,0.0,3.0,86,0.00,,,0.00,0.0,meteohub,2013-02-11 12:17:00,
2013-02-11 07:22:00,63.0,58.6,30.16,SSE,165,0.0,3.0,86,0.00,,,0.00,5.0,meteohub,2013-02-11 12:22:00,
2013-02-11 07:27:00,63.1,58.8,30.16,SSE,165,0.0,1.0,86,0.00,,,0.00,9.0,meteohub,2013-02-11 12:27:00,
2013-02-11 07:32:00,63.1,58.8,30.16,South,180,0.0,3.0,86,0.00,,,0.00,12.0,meteohub,2013-02-11 12:32:00,
2013-02-11 07:37:00,63.3,59.0,30.16,South,180,0.0,4.0,86,0.00,,,0.00,14.0,meteohub,2013-02-11 12:37:00,
2013-02-11 07:42:00,63.5,59.2,30.16,South,169,1.0,4.0,86,0.00,,,0.00,25.0,meteohub,2013-02-11 12:42:00,
2013-02-11 07:47:00,63.7,59.4,30.16,ESE,111,0.0,4.0,86,0.00,,,0.00,32.0,meteohub,2013-02-11 12:47:00,
2013-02-11 07:52:00,63.9,59.5,30.16,SE,146,1.0,4.0,86,0.00,,,0.00,44.0,meteohub,2013-02-11 12:52:00,
2013-02-11 07:57:00,64.0,59.7,30.16,SE,145,1.0,4.0,86,0.00,,,0.00,54.0,meteohub,2013-02-11 12:57:00,
2013-02-11 08:02:00,64.0,59.7,30.16,SSE,168,0.0,5.0,86,0.00,,,0.00,30.0,meteohub,2013-02-11 13:02:00,
2013-02-11 08:07:00,64.2,59.9,30.17,South,184,0.0,5.0,86,0.00,,,0.00,19.0,meteohub,2013-02-11 13:07:00,
2013-02-11 08:12:00,64.2,59.9,30.17,SSE,165,1.0,5.0,86,0.00,,,0.00,32.0,meteohub,2013-02-11 13:12:00,
2013-02-11 08:17:00,64.4,60.1,30.17,South,179,2.0,6.0,86,0.00,,,0.00,39.0,meteohub,2013-02-11 13:17:00,
2013-02-11 08:22:00,64.6,60.3,30.17,ESE,111,0.0,6.0,86,0.00,,,0.00,42.0,meteohub,2013-02-11 13:22:00,
2013-02-11 08:27:00,64.6,60.3,30.17,ESE,113,0.0,6.0,86,0.00,,,0.00,40.0,meteohub,2013-02-11 13:27:00,
2013-02-11 08:32:00,64.8,60.4,30.17,ESE,113,0.0,5.0,86,0.00,,,0.00,39.0,meteohub,2013-02-11 13:32:00,
2013-02-11 08:37:00,64.8,60.4,30.17,South,181,2.0,3.0,86,0.00,,,0.00,62.0,meteohub,2013-02-11 13:37:00,
2013-02-11 08:42:00,64.8,60.4,30.17,South,177,1.0,4.0,86,0.00,,,0.00,77.0,meteohub,2013-02-11 13:42:00,
2013-02-11 08:47:00,64.8,60.4,30.17,SSE,157,0.0,6.0,86,0.00,,,0.00,93.0,meteohub,2013-02-11 13:47:00,
2013-02-11 08:52:00,64.9,60.6,30.17,SSE,157,0.0,6.0,86,0.00,,,0.00,100.0,meteohub,2013-02-11 13:52:00,
2013-02-11 08:57:00,65.1,60.4,30.17,SSE,163,4.0,6.0,85,0.00,,,0.00,114.0,meteohub,2013-02-11 13:57:00,
2013-02-11 09:02:00,65.3,60.6,30.16,South,171,2.0,4.0,85,0.00,,,0.00,128.0,meteohub,2013-02-11 14:02:00,
2013-02-11 09:07:00,65.5,60.8,30.16,South,174,3.0,4.0,85,0.00,,,0.00,141.0,meteohub,2013-02-11 14:07:00,
2013-02-11 09:12:00,65.5,60.8,30.16,SSE,149,5.0,6.0,85,0.00,,,0.00,149.0,meteohub,2013-02-11 14:12:00,
2013-02-11 09:17:00,65.7,61.0,30.15,SSE,160,1.0,6.0,85,0.00,,,0.00,174.0,meteohub,2013-02-11 14:17:00,
2013-02-11 09:22:00,65.8,61.2,30.15,ESE,121,5.0,6.0,85,0.00,,,0.00,199.0,meteohub,2013-02-11 14:22:00,
2013-02-11 09:27:00,66.0,61.3,30.16,SW,227,0.0,6.0,85,0.00,,,0.00,200.0,meteohub,2013-02-11 14:27:00,
2013-02-11 09:32:00,66.2,61.5,30.15,SSE,157,11.0,11.0,85,0.00,,,0.00,193.0,meteohub,2013-02-11 14:32:00,
2013-02-11 09:37:00,66.4,61.3,30.15,SSE,165,2.0,12.0,84,0.00,,,0.00,197.0,meteohub,2013-02-11 14:37:00,
2013-02-11 09:42:00,66.6,61.5,30.15,South,179,2.0,12.0,84,0.00,,,0.00,209.0,meteohub,2013-02-11 14:42:00,
2013-02-11 09:47:00,66.7,61.7,30.15,South,173,1.0,12.0,84,0.00,,,0.00,237.0,meteohub,2013-02-11 14:47:00,
2013-02-11 09:52:00,67.3,62.2,30.15,ESE,103,5.0,10.0,84,0.00,,,0.00,592.0,meteohub,2013-02-11 14:52:00,
2013-02-11 09:57:00,67.8,62.4,30.15,South,183,3.0,10.0,83,0.00,,,0.00,578.0,meteohub,2013-02-11 14:57:00,
2013-02-11 10:02:00,68.5,63.1,30.15,SSE,168,3.0,10.0,83,0.00,,,0.00,589.0,meteohub,2013-02-11 15:02:00,
2013-02-11 10:07:00,69.1,63.7,30.15,ESE,111,0.0,9.0,83,0.00,,,0.00,715.0,meteohub,2013-02-11 15:07:00,
2013-02-11 10:12:00,69.3,63.5,30.16,South,189,7.0,13.0,82,0.00,,,0.00,248.0,meteohub,2013-02-11 15:12:00,
2013-02-11 10:17:00,69.1,63.3,30.16,WSW,245,10.0,13.0,82,0.00,,,0.00,218.0,meteohub,2013-02-11 15:17:00,
2013-02-11 10:22:00,68.7,63.0,30.16,South,178,3.0,13.0,82,0.00,,,0.00,269.0,meteohub,2013-02-11 15:22:00,
2013-02-11 10:27:00,68.9,63.1,30.16,South,173,1.0,13.0,82,0.00,,,0.00,366.0,meteohub,2013-02-11 15:27:00,
2013-02-11 10:32:00,69.3,63.5,30.16,East,95,8.0,12.0,82,0.00,,,0.00,265.0,meteohub,2013-02-11 15:32:00,
2013-02-11 10:37:00,69.4,63.7,30.16,South,179,5.0,11.0,82,0.00,,,0.00,207.0,meteohub,2013-02-11 15:37:00,
2013-02-11 10:42:00,69.3,63.5,30.16,South,171,2.0,11.0,82,0.00,,,0.00,241.0,meteohub,2013-02-11 15:42:00,
2013-02-11 10:47:00,69.4,63.7,30.15,SSE,164,2.0,12.0,82,0.00,,,0.00,461.0,meteohub,2013-02-11 15:47:00,
2013-02-11 10:52:00,69.8,64.0,30.15,SSW,198,3.0,12.0,82,0.00,,,0.00,383.0,meteohub,2013-02-11 15:52:00,
2013-02-11 10:57:00,70.2,64.0,30.15,SSE,164,3.0,12.0,81,0.00,,,0.00,246.0,meteohub,2013-02-11 15:57:00,
2013-02-11 11:02:00,70.2,64.0,30.15,SSE,158,7.0,7.0,81,0.00,,,0.00,338.0,meteohub,2013-02-11 16:02:00,
2013-02-11 11:07:00,70.3,64.2,30.14,South,173,3.0,9.0,81,0.00,,,0.00,327.0,meteohub,2013-02-11 16:07:00,
2013-02-11 11:12:00,70.9,64.8,30.14,SW,227,2.0,9.0,81,0.00,,,0.00,408.0,meteohub,2013-02-11 16:12:00,
2013-02-11 11:17:00,71.2,64.8,30.14,South,186,3.0,9.0,80,0.00,,,0.00,404.0,meteohub,2013-02-11 16:17:00,
2013-02-11 11:22:00,71.4,64.9,30.14,South,169,5.0,11.0,80,0.00,,,0.00,462.0,meteohub,2013-02-11 16:22:00,
2013-02-11 11:27:00,71.8,65.3,30.14,ESE,107,0.0,11.0,80,0.00,,,0.00,338.0,meteohub,2013-02-11 16:27:00,
2013-02-11 11:32:00,71.8,64.9,30.13,SE,130,6.0,11.0,79,0.00,,,0.00,642.0,meteohub,2013-02-11 16:32:00,
2013-02-11 11:37:00,72.0,65.1,30.13,South,174,3.0,10.0,79,0.00,,,0.00,707.0,meteohub,2013-02-11 16:37:00,
2013-02-11 11:42:00,72.3,65.5,30.12,SSE,153,8.0,14.0,79,0.00,,,0.00,710.0,meteohub,2013-02-11 16:42:00,
2013-02-11 11:47:00,72.9,65.7,30.12,SSE,159,2.0,14.0,78,0.00,,,0.00,724.0,meteohub,2013-02-11 16:47:00,
2013-02-11 11:52:00,73.2,66.0,30.12,SSE,155,8.0,14.0,78,0.00,,,0.00,675.0,meteohub,2013-02-11 16:52:00,
2013-02-11 11:57:00,73.6,66.4,30.12,SE,146,0.0,11.0,78,0.00,,,0.00,640.0,meteohub,2013-02-11 16:57:00,
2013-02-11 12:02:00,73.8,66.4,30.12,SSE,150,5.0,11.0,78,0.00,,,0.00,513.0,meteohub,2013-02-11 17:02:00,
2013-02-11 12:07:00,73.9,66.2,30.12,South,180,1.0,12.0,77,0.00,,,0.00,828.0,meteohub,2013-02-11 17:07:00,
2013-02-11 12:12:00,74.7,66.9,30.12,SSW,212,0.0,12.0,77,0.00,,,0.00,408.0,meteohub,2013-02-11 17:12:00,
2013-02-11 12:17:00,74.8,66.7,30.12,WSW,241,4.0,8.0,76,0.00,,,0.00,322.0,meteohub,2013-02-11 17:17:00,
2013-02-11 12:22:00,74.7,66.6,30.12,SW,234,1.0,8.0,76,0.00,,,0.00,313.0,meteohub,2013-02-11 17:22:00,
2013-02-11 12:27:00,74.7,66.6,30.12,SSW,204,1.0,8.0,76,0.00,,,0.00,346.0,meteohub,2013-02-11 17:27:00,
2013-02-11 12:32:00,74.7,66.6,30.12,West,260,4.0,7.0,76,0.00,,,0.00,304.0,meteohub,2013-02-11 17:32:00,
2013-02-11 12:37:00,74.8,66.4,30.11,WSW,252,2.0,7.0,75,0.00,,,0.00,315.0,meteohub,2013-02-11 17:37:00,
2013-02-11 12:42:00,74.7,66.2,30.11,South,172,2.0,9.0,75,0.00,,,0.00,323.0,meteohub,2013-02-11 17:42:00,
2013-02-11 12:47:00,74.8,66.4,30.11,SSE,151,1.0,9.0,75,0.00,,,0.00,388.0,meteohub,2013-02-11 17:47:00,
2013-02-11 12:52:00,75.0,66.2,30.10,South,177,2.0,9.0,74,0.00,,,0.00,754.0,meteohub,2013-02-11 17:52:00,
2013-02-11 12:57:00,75.6,66.7,30.09,SE,146,3.0,9.0,74,0.00,,,0.00,446.0,meteohub,2013-02-11 17:57:00,
2013-02-11 13:02:00,76.3,67.5,30.09,West,263,1.0,9.0,74,0.00,,,0.00,478.0,meteohub,2013-02-11 18:02:00,
2013-02-11 13:07:00,76.5,67.1,30.09,South,188,4.0,7.0,73,0.00,,,0.00,290.0,meteohub,2013-02-11 18:07:00,
2013-02-11 13:12:00,76.3,66.6,30.09,SSW,199,1.0,10.0,72,0.00,,,0.00,403.0,meteohub,2013-02-11 18:12:00,
2013-02-11 13:17:00,76.5,66.7,30.09,South,190,3.0,11.0,72,0.00,,,0.00,582.0,meteohub,2013-02-11 18:17:00,
2013-02-11 13:22:00,76.8,67.1,30.09,WSW,238,2.0,11.0,72,0.00,,,0.00,439.0,meteohub,2013-02-11 18:22:00,
2013-02-11 13:27:00,76.5,66.4,30.09,SSW,196,2.0,11.0,71,0.00,,,0.00,304.0,meteohub,2013-02-11 18:27:00,
2013-02-11 13:33:00,76.5,66.7,30.09,WSW,241,0.0,7.0,72,0.00,,,0.00,292.0,meteohub,2013-02-11 18:33:00,
2013-02-11 13:38:00,76.3,66.2,30.09,SSW,209,1.0,7.0,71,0.00,,,0.00,260.0,meteohub,2013-02-11 18:38:00,
2013-02-11 13:43:00,76.3,66.2,30.08,SW,234,0.0,8.0,71,0.00,,,0.00,176.0,meteohub,2013-02-11 18:43:00,
2013-02-11 13:48:00,76.3,66.2,30.08,South,169,2.0,8.0,71,0.00,,,0.00,118.0,meteohub,2013-02-11 18:48:00,
2013-02-11 13:53:00,75.6,65.8,30.08,SE,133,1.0,8.0,72,0.00,,,0.00,113.0,meteohub,2013-02-11 18:53:00,
2013-02-11 13:58:00,75.0,65.8,30.08,ESE,119,1.0,4.0,73,0.00,,,0.00,146.0,meteohub,2013-02-11 18:58:00,
2013-02-11 14:03:00,74.5,65.7,30.07,East,96,3.0,4.0,74,0.00,,,0.00,130.0,meteohub,2013-02-11 19:03:00,
2013-02-11 14:08:00,73.8,64.9,30.07,SE,141,0.0,5.0,74,0.00,,,0.00,148.0,meteohub,2013-02-11 19:08:00,
2013-02-11 14:13:00,73.2,64.8,30.07,ESE,123,1.0,8.0,75,0.00,,,0.00,144.0,meteohub,2013-02-11 19:13:00,
2013-02-11 14:18:00,73.0,64.6,30.07,SE,138,2.0,8.0,75,0.00,,,0.00,132.0,meteohub,2013-02-11 19:18:00,
2013-02-11 14:23:00,72.9,64.4,30.07,SE,132,1.0,8.0,75,0.00,,,0.00,137.0,meteohub,2013-02-11 19:23:00,
2013-02-11 14:28:00,72.9,64.4,30.07,SE,139,5.0,7.0,75,0.00,,,0.00,169.0,meteohub,2013-02-11 19:28:00,
2013-02-11 14:33:00,72.7,64.2,30.07,ESE,122,2.0,5.0,75,0.00,,,0.00,153.0,meteohub,2013-02-11 19:33:00,
2013-02-11 14:38:00,72.7,64.8,30.06,South,171,0.0,7.0,76,0.00,,,0.00,172.0,meteohub,2013-02-11 19:38:00,
2013-02-11 14:43:00,72.7,64.8,30.06,East,96,0.0,7.0,76,0.00,,,0.00,244.0,meteohub,2013-02-11 19:43:00,
2013-02-11 14:48:00,72.7,64.8,30.06,South,171,2.0,3.0,76,0.00,,,0.00,267.0,meteohub,2013-02-11 19:48:00,
2013-02-11 14:53:00,72.7,64.8,30.06,ESE,121,0.0,5.0,76,0.00,,,0.00,343.0,meteohub,2013-02-11 19:53:00,
2013-02-11 14:58:00,72.9,64.8,30.06,SE,125,0.0,5.0,76,0.00,,,0.00,214.0,meteohub,2013-02-11 19:58:00,
2013-02-11 15:03:00,72.9,64.8,30.06,SSE,147,1.0,6.0,76,0.00,,,0.00,258.0,meteohub,2013-02-11 20:03:00,
2013-02-11 15:08:00,73.0,64.9,30.06,SE,126,3.0,6.0,76,0.00,,,0.00,568.0,meteohub,2013-02-11 20:08:00,
2013-02-11 15:13:00,73.0,64.9,30.06,SE,136,1.0,6.0,76,0.00,,,0.00,239.0,meteohub,2013-02-11 20:13:00,
2013-02-11 15:18:00,73.0,64.9,30.06,ESE,112,0.0,5.0,76,0.00,,,0.00,237.0,meteohub,2013-02-11 20:18:00,
2013-02-11 15:23:00,73.0,64.9,30.05,SSE,164,1.0,5.0,76,0.00,,,0.00,204.0,meteohub,2013-02-11 20:23:00,
2013-02-11 15:28:00,73.2,65.1,30.05,ESE,109,0.0,4.0,76,0.00,,,0.00,250.0,meteohub,2013-02-11 20:28:00,
2013-02-11 15:33:00,73.2,65.1,30.05,ENE,77,2.0,4.0,76,0.00,,,0.00,387.0,meteohub,2013-02-11 20:33:00,
2013-02-11 15:38:00,73.4,65.3,30.05,ENE,71,0.0,4.0,76,0.00,,,0.00,174.0,meteohub,2013-02-11 20:38:00,
2013-02-11 15:43:00,73.8,65.7,30.05,East,100,0.0,4.0,76,0.00,,,0.00,176.0,meteohub,2013-02-11 20:43:00,
2013-02-11 15:48:00,73.8,65.7,30.05,ENE,78,0.0,4.0,76,0.00,,,0.00,165.0,meteohub,2013-02-11 20:48:00,
2013-02-11 15:53:00,73.8,65.7,30.05,ESE,117,0.0,4.0,76,0.00,,,0.00,158.0,meteohub,2013-02-11 20:53:00,
2013-02-11 15:58:00,73.8,65.7,30.06,East,79,0.0,4.0,76,0.00,,,0.00,93.0,meteohub,2013-02-11 20:58:00,
2013-02-11 16:03:00,73.8,65.7,30.05,East,83,1.0,4.0,76,0.00,,,0.00,134.0,meteohub,2013-02-11 21:03:00,
2013-02-11 16:08:00,73.6,65.5,30.05,East,80,2.0,3.0,76,0.00,,,0.00,120.0,meteohub,2013-02-11 21:08:00,
2013-02-11 16:13:00,73.2,65.1,30.05,East,85,2.0,3.0,76,0.00,,,0.00,114.0,meteohub,2013-02-11 21:13:00,
2013-02-11 16:18:00,73.0,65.5,30.05,ENE,74,0.0,5.0,77,0.00,,,0.00,165.0,meteohub,2013-02-11 21:18:00,
2013-02-11 16:24:00,73.0,65.5,30.04,ESE,116,1.0,5.0,77,0.00,,,0.00,130.0,meteohub,2013-02-11 21:24:00,
2013-02-11 16:29:00,72.9,65.3,30.04,ESE,115,2.0,5.0,77,0.00,,,0.00,107.0,meteohub,2013-02-11 21:29:00,
2013-02-11 16:34:00,72.5,64.9,30.04,SE,130,0.0,4.0,77,0.00,,,0.00,114.0,meteohub,2013-02-11 21:34:00,
2013-02-11 16:39:00,72.0,64.4,30.04,ESE,112,1.0,5.0,77,0.00,,,0.00,123.0,meteohub,2013-02-11 21:39:00,
2013-02-11 16:44:00,71.4,63.9,30.04,SSE,156,1.0,7.0,77,0.00,,,0.00,111.0,meteohub,2013-02-11 21:44:00,
2013-02-11 16:49:00,71.1,63.9,30.04,ESE,113,3.0,7.0,78,0.00,,,0.00,81.0,meteohub,2013-02-11 21:49:00,
2013-02-11 16:54:00,70.9,63.7,30.04,ESE,122,0.0,7.0,78,0.00,,,0.00,70.0,meteohub,2013-02-11 21:54:00,
2013-02-11 16:59:00,70.5,63.3,30.04,East,95,3.0,6.0,78,0.00,,,0.00,65.0,meteohub,2013-02-11 21:59:00,
2013-02-11 17:04:00,70.2,63.3,30.04,SE,124,1.0,7.0,79,0.00,,,0.00,72.0,meteohub,2013-02-11 22:04:00,
2013-02-11 17:09:00,70.0,63.1,30.04,SE,129,1.0,7.0,79,0.00,,,0.00,58.0,meteohub,2013-02-11 22:09:00,
2013-02-11 17:14:00,69.6,62.8,30.04,SE,128,1.0,7.0,79,0.00,,,0.00,46.0,meteohub,2013-02-11 22:14:00,
2013-02-11 17:19:00,69.4,62.6,30.04,SE,128,0.0,6.0,79,0.00,,,0.00,35.0,meteohub,2013-02-11 22:19:00,
2013-02-11 17:24:00,69.3,62.8,30.04,ESE,115,3.0,6.0,80,0.00,,,0.00,44.0,meteohub,2013-02-11 22:24:00,
2013-02-11 17:29:00,69.3,62.8,30.04,SE,133,1.0,5.0,80,0.00,,,0.00,51.0,meteohub,2013-02-11 22:29:00,
2013-02-11 17:34:00,69.1,62.6,30.04,ESE,109,0.0,5.0,80,0.00,,,0.00,35.0,meteohub,2013-02-11 22:34:00,
2013-02-11 17:39:00,69.1,62.6,30.04,ESE,114,0.0,5.0,80,0.00,,,0.00,28.0,meteohub,2013-02-11 22:39:00,
2013-02-11 17:44:00,68.7,62.2,30.04,ESE,120,0.0,5.0,80,0.00,,,0.00,21.0,meteohub,2013-02-11 22:44:00,
2013-02-11 17:49:00,68.7,62.6,30.04,ESE,112,0.0,4.0,81,0.00,,,0.00,18.0,meteohub,2013-02-11 22:49:00,
2013-02-11 17:54:00,68.5,62.4,30.04,SE,137,1.0,4.0,81,0.00,,,0.00,9.0,meteohub,2013-02-11 22:54:00,
2013-02-11 17:59:00,68.4,62.2,30.04,SE,137,1.0,4.0,81,0.00,,,0.00,0.0,meteohub,2013-02-11 22:59:00,
2013-02-11 18:04:00,68.2,62.1,30.04,SE,138,0.0,4.0,81,0.00,,,0.00,0.0,meteohub,2013-02-11 23:04:00,
2013-02-11 18:10:00,68.0,61.9,30.04,ESE,118,1.0,4.0,81,0.00,,,0.00,0.0,meteohub,2013-02-11 23:10:00,
2013-02-11 18:15:00,67.8,61.7,30.04,ESE,119,0.0,3.0,81,0.00,,,0.00,0.0,meteohub,2013-02-11 23:15:00,
2013-02-11 18:20:00,67.8,62.1,30.04,ESE,118,1.0,3.0,82,0.00,,,0.00,0.0,meteohub,2013-02-11 23:20:00,
2013-02-11 18:25:00,67.6,61.9,30.04,SE,126,2.0,3.0,82,0.00,,,0.00,0.0,meteohub,2013-02-11 23:25:00,
2013-02-11 18:30:00,67.6,61.9,30.04,SE,138,1.0,4.0,82,0.00,,,0.00,0.0,meteohub,2013-02-11 23:30:00,
2013-02-11 18:35:00,67.6,61.9,30.04,SE,124,1.0,5.0,82,0.00,,,0.00,0.0,meteohub,2013-02-11 23:35:00,
2013-02-11 18:40:00,67.6,61.9,30.04,ESE,123,0.0,5.0,82,0.00,,,0.00,0.0,meteohub,2013-02-11 23:40:00,
2013-02-11 18:45:00,67.6,61.9,30.04,SE,124,0.0,5.0,82,0.00,,,0.00,0.0,meteohub,2013-02-11 23:45:00,
2013-02-11 18:50:00,67.6,62.2,30.04,SE,124,0.0,3.0,83,0.00,,,0.00,0.0,meteohub,2013-02-11 23:50:00,
2013-02-11 18:55:00,67.5,62.1,30.04,SE,124,1.0,3.0,83,0.00,,,0.00,0.0,meteohub,2013-02-11 23:55:00,
2013-02-11 19:00:00,67.5,62.1,30.04,ESE,123,0.0,3.0,83,0.00,,,0.00,0.0,meteohub,2013-02-12 00:00:00,
2013-02-11 19:05:00,67.5,62.1,30.04,ESE,123,0.0,1.0,83,0.00,,,0.00,0.0,meteohub,2013-02-12 00:05:00,
2013-02-11 19:10:00,67.5,62.1,30.04,SE,124,0.0,1.0,83,0.00,,,0.00,0.0,meteohub,2013-02-12 00:10:00,
2013-02-11 19:15:00,67.3,61.9,30.04,SE,124,0.0,1.0,83,0.00,,,0.00,0.0,meteohub,2013-02-12 00:15:00,
2013-02-11 19:20:00,67.3,61.9,30.04,SE,124,0.0,2.0,83,0.00,,,0.00,0.0,meteohub,2013-02-12 00:20:00,
2013-02-11 19:25:00,67.3,61.9,30.04,SE,124,0.0,2.0,83,0.00,,,0.00,0.0,meteohub,2013-02-12 00:25:00,
2013-02-11 19:30:00,67.3,61.9,30.05,SE,124,0.0,2.0,83,0.00,,,0.00,0.0,meteohub,2013-02-12 00:30:00,
2013-02-11 19:35:00,67.3,62.2,30.05,ESE,123,0.0,2.0,84,0.00,,,0.00,0.0,meteohub,2013-02-12 00:35:00,
2013-02-11 19:40:00,67.1,62.1,30.05,SE,124,0.0,2.0,84,0.00,,,0.00,0.0,meteohub,2013-02-12 00:40:00,
2013-02-11 19:45:00,66.9,61.9,30.06,SE,124,0.0,2.0,84,0.00,,,0.00,0.0,meteohub,2013-02-12 00:45:00,
2013-02-11 19:50:00,66.9,61.9,30.06,SE,124,0.0,1.0,84,0.00,,,0.00,0.0,meteohub,2013-02-12 00:50:00,
2013-02-11 19:55:00,66.9,61.9,30.06,SE,124,1.0,2.0,84,0.00,,,0.00,0.0,meteohub,2013-02-12 00:55:00,
2013-02-11 20:00:00,66.9,61.9,30.06,WNW,300,0.0,6.0,84,0.00,,,0.00,0.0,meteohub,2013-02-12 01:00:00,
2013-02-11 20:05:00,67.1,62.1,30.06,WNW,302,1.0,6.0,84,0.00,,,0.00,0.0,meteohub,2013-02-12 01:05:00,
2013-02-11 20:10:00,67.3,62.2,30.06,SSE,150,1.0,6.0,84,0.00,,,0.00,0.0,meteohub,2013-02-12 01:10:00,
2013-02-11 20:15:00,67.5,62.4,30.06,SSE,150,0.0,4.0,84,0.00,,,0.00,0.0,meteohub,2013-02-12 01:15:00,
2013-02-11 20:20:00,67.5,62.4,30.06,SSE,150,0.0,4.0,84,0.00,,,0.00,0.0,meteohub,2013-02-12 01:20:00,
2013-02-11 20:25:00,67.5,62.4,30.07,SSE,149,0.0,2.0,84,0.00,,,0.00,0.0,meteohub,2013-02-12 01:25:00,
2013-02-11 20:30:00,67.5,62.4,30.07,SSE,150,0.0,2.0,84,0.00,,,0.00,0.0,meteohub,2013-02-12 01:30:00,
2013-02-11 20:35:00,67.5,62.4,30.07,WNW,294,1.0,7.0,84,0.00,,,0.00,0.0,meteohub,2013-02-12 01:35:00,
2013-02-11 20:40:00,67.5,62.4,30.07,North,11,0.0,7.0,84,0.00,,,0.00,0.0,meteohub,2013-02-12 01:40:00,
2013-02-11 20:45:00,67.5,62.4,30.07,WNW,295,3.0,8.0,84,0.00,,,0.00,0.0,meteohub,2013-02-12 01:45:00,
2013-02-11 20:50:00,67.3,62.6,30.07,West,271,2.0,8.0,85,0.00,,,0.00,0.0,meteohub,2013-02-12 01:50:00,
2013-02-11 20:55:00,67.1,62.4,30.08,SW,229,0.0,8.0,85,0.00,,,0.00,0.0,meteohub,2013-02-12 01:55:00,
2013-02-11 21:00:00,66.9,62.2,30.06,NW,321,3.0,7.0,85,0.00,,,0.00,0.0,meteohub,2013-02-12 02:00:00,
2013-02-11 21:05:00,66.7,62.1,30.06,NW,319,4.0,7.0,85,0.00,,,0.00,0.0,meteohub,2013-02-12 02:05:00,
2013-02-11 21:10:00,66.6,61.9,30.06,WNW,296,2.0,7.0,85,0.00,,,0.00,0.0,meteohub,2013-02-12 02:10:00,
2013-02-11 21:15:00,66.4,61.7,30.06,North,355,1.0,6.0,85,0.00,,,0.00,0.0,meteohub,2013-02-12 02:15:00,
2013-02-11 21:20:00,66.0,61.3,30.06,NW,326,0.0,6.0,85,0.00,,,0.00,0.0,meteohub,2013-02-12 02:20:00,
2013-02-11 21:25:00,65.8,61.2,30.06,WNW,287,0.0,5.0,85,0.00,,,0.00,0.0,meteohub,2013-02-12 02:25:00,
2013-02-11 21:30:00,65.7,61.0,30.06,NE,52,0.0,5.0,85,0.00,,,0.00,0.0,meteohub,2013-02-12 02:30:00,
2013-02-11 21:35:00,65.5,60.8,30.06,NW,319,1.0,3.0,85,0.00,,,0.00,0.0,meteohub,2013-02-12 02:35:00,
2013-02-11 21:40:00,65.5,60.8,30.06,NW,319,0.0,3.0,85,0.00,,,0.00,0.0,meteohub,2013-02-12 02:40:00,
2013-02-11 21:45:00,65.1,60.4,30.06,NW,310,2.0,4.0,85,0.00,,,0.00,0.0,meteohub,2013-02-12 02:45:00,
2013-02-11 21:50:00,64.9,60.3,30.06,WNW,300,1.0,4.0,85,0.00,,,0.00,0.0,meteohub,2013-02-12 02:50:00,
2013-02-11 21:55:00,64.9,60.3,30.06,WNW,300,0.0,4.0,85,0.00,,,0.00,0.0,meteohub,2013-02-12 02:55:00,
2013-02-11 22:00:00,64.8,60.4,30.06,NE,51,1.0,4.0,86,0.00,,,0.00,0.0,meteohub,2013-02-12 03:00:00,
2013-02-11 22:05:00,64.6,60.3,30.06,NE,51,0.0,4.0,86,0.00,,,0.00,0.0,meteohub,2013-02-12 03:05:00,
2013-02-11 22:10:00,64.4,60.1,30.06,NE,51,2.0,4.0,86,0.00,,,0.00,0.0,meteohub,2013-02-12 03:10:00,
2013-02-11 22:15:00,64.2,59.9,30.06,West,279,2.0,2.0,86,0.00,,,0.00,0.0,meteohub,2013-02-12 03:15:00,
2013-02-11 22:20:00,64.0,59.7,30.07,NW,310,2.0,3.0,86,0.00,,,0.00,0.0,meteohub,2013-02-12 03:20:00,
2013-02-11 22:25:00,64.0,59.7,30.07,NW,308,1.0,3.0,86,0.00,,,0.00,0.0,meteohub,2013-02-12 03:25:00,
2013-02-11 22:30:00,63.9,59.5,30.07,NW,307,1.0,3.0,86,0.00,,,0.00,0.0,meteohub,2013-02-12 03:30:00,
2013-02-11 22:35:00,63.9,59.5,30.07,NW,313,0.0,3.0,86,0.00,,,0.00,0.0,meteohub,2013-02-12 03:35:00,
2013-02-11 22:40:00,63.7,59.4,30.07,NW,311,0.0,3.0,86,0.00,,,0.00,0.0,meteohub,2013-02-12 03:40:00,
2013-02-11 22:45:00,63.7,59.7,30.06,NE,34,5.0,5.0,87,0.00,,,0.00,0.0,meteohub,2013-02-12 03:45:00,
2013-02-11 22:50:00,63.5,59.5,30.07,NE,34,1.0,7.0,87,0.00,,,0.00,0.0,meteohub,2013-02-12 03:50:00,
2013-02-11 22:55:00,63.3,59.4,30.07,North,355,0.0,7.0,87,0.00,,,0.00,0.0,meteohub,2013-02-12 03:55:00,
2013-02-11 23:00:00,63.3,59.4,30.08,NE,53,1.0,7.0,87,0.00,,,0.00,0.0,meteohub,2013-02-12 04:00:00,
2013-02-11 23:05:00,63.3,59.4,30.08,NE,44,0.0,4.0,87,0.00,,,0.00,0.0,meteohub,2013-02-12 04:05:00,
2013-02-11 23:10:00,63.1,59.2,30.07,NE,44,0.0,3.0,87,0.00,,,0.00,0.0,meteohub,2013-02-12 04:10:00,
2013-02-11 23:15:00,63.1,59.2,30.07,NE,44,2.0,3.0,87,0.00,,,0.00,0.0,meteohub,2013-02-12 04:15:00,
2013-02-11 23:20:00,63.1,59.2,30.08,NW,315,0.0,4.0,87,0.00,,,0.00,0.0,meteohub,2013-02-12 04:20:00,
2013-02-11 23:25:00,63.0,59.0,30.08,NW,315,2.0,4.0,87,0.00,,,0.00,0.0,meteohub,2013-02-12 04:25:00,
2013-02-11 23:30:00,63.0,59.0,30.08,West,280,0.0,4.0,87,0.00,,,0.00,0.0,meteohub,2013-02-12 04:30:00,
2013-02-11 23:35:00,63.0,59.4,30.07,West,281,0.0,4.0,88,0.00,,,0.00,0.0,meteohub,2013-02-12 04:35:00,
2013-02-11 23:40:00,62.8,59.2,30.06,West,281,0.0,4.0,88,0.00,,,0.00,0.0,meteohub,2013-02-12 04:40:00,
2013-02-11 23:45:00,62.8,58.8,30.06,West,281,0.0,4.0,87,0.00,,,0.00,0.0,meteohub,2013-02-12 04:45:00,
2013-02-11 23:50:00,62.4,58.8,30.06,West,280,2.0,2.0,88,0.00,,,0.00,0.0,meteohub,2013-02-12 04:50:00,
2013-02-11 23:55:00,62.4,58.8,30.07,West,281,0.0,2.0,88,0.00,,,0.00,0.0,meteohub,2013-02-12 04:55:00,